Airfield :
LOGIN :

Register | Disclaimer

   EN    FR    IT 

 










Legend :    VFR   Marginal VFR   IFR   Intensive IFR   Very Intensive IFR
Visi :
Ceiling :
>= 8 km
>= 3000ft
5 to 8 km
1000 to 3000 ft
1500m to 5 km
500 to 1000 ft
800 to 1500m
200 to 500 ft
< 800m
< 200 ft
Symbols :   Thunderstorms  Fog  Heavy snow  Heavy precipitations  Wind > 20 kt
SIGMETs :     Misc.  Thunderstorms  Icing  Turbulence  Mountain Waves  Volcanic Ashes







- Airport Elevation : 124 ft
- IATA code : NHT
- Download approach charts


EGWU - RAF Northolt

CURRENT METAR :
  • 211850Z 22008KT CAVOK 19/10 Q1024 NOSIG RMK BLU BLU

EXPIRED METARs :
  • 211750Z 19008KT CAVOK 20/11 Q1024 NOSIG RMK BLU BLU
  • 211721Z 19010KT CAVOK 21/11 Q1024 NOSIG RMK BLU BLU
  • 211650Z 21010KT 9999 SCT044 BKN250 21/11 Q1024 NOSIG RMK BLU BLU
  • 211622Z 19009KT 9999 FEW045 BKN250 22/11 Q1024 NOSIG RMK BLU BLU

TAF TAF EGWU
Valid from the 21 at 18:00 until the 22 at 12:00 UTC


211629Z 2118/2212 22008KT 9999 SCT045
No reported NOTAMs for that airfield.



MET'MAP, your aeronautical weather chart ! - Copyright ORBIFLY December 2007 - Disclaimer

ORBIFLY MET'MAP TEAM :

Programming & Development : Alexandra Zaïnal
Concept & Development : Baudouin d'Aumeries
Co-Development & Prog : Marc-Olivier Méhu
Technical & hardware support : Manuel Goepfert

Contact : metmap@orbifly.com




SOURCES & CREDITS :

   NOAA